Time;durP1;ratioP1;P1;durP2;ratioP2;P2;SDS_P1;SDS_P2;PMS_P1;PMS_P2;Temp;Humidity;BMP_temperature;BMP_pressure;BME280_temperature;BME280_humidity;BME280_pressure;Samples;Min_cycle;Max_cycle;Signal;HPM_P1;HPM_P2
2021/12/14 00:01:35;;;;;;;0.40;0.20;;;-4.30;80.20;;;;;;2197025;65;20075;-29
2021/12/14 00:04:10;;;;;;;1.03;0.30;;;-4.30;79.80;;;;;;2197015;65;20217;-30
2021/12/14 00:06:37;;;;;;;;;;;-4.30;80.30;;;;;;2200375;65;20102;-30
2021/12/14 00:09:05;;;;;;;3.40;1.00;;;-4.30;80.70;;;;;;2197068;65;20046;-30
2021/12/14 00:11:53;;;;;;;0.77;0.40;;;-4.40;80.30;;;;;;2203218;65;20175;-31
2021/12/14 00:15:02;;;;;;;1.03;0.30;;;-4.40;79.90;;;;;;2201103;65;20097;-31
2021/12/14 00:17:21;;;;;;;1.17;0.57;;;-4.30;80.50;;;;;;2204131;65;20103;-31
2021/12/14 00:19:48;;;;;;;1.77;0.50;;;-4.40;80.60;;;;;;2201008;65;20160;-32
2021/12/14 00:24:05;;;;;;;0.50;0.30;;;-4.30;80.40;;;;;;2200809;65;20095;-31
2021/12/14 00:25:05;;;;;;;2.97;0.30;;;-4.30;80.40;;;;;;2203383;64;20098;-31
2021/12/14 00:27:31;;;;;;;2.47;0.40;;;-4.30;80.70;;;;;;2200772;65;20305;-30
2021/12/14 00:29:59;;;;;;;0.80;0.30;;;-4.40;80.20;;;;;;2200724;65;20114;-31
2021/12/14 00:32:28;;;;;;;2.03;0.40;;;-4.40;80.30;;;;;;2200666;65;20091;-33
2021/12/14 00:34:58;;;;;;;2.23;0.40;;;-4.40;80.40;;;;;;2204028;65;20153;-36
2021/12/14 00:37:35;;;;;;;1.57;0.50;;;-4.40;80.30;;;;;;2208064;64;20089;-38
2021/12/14 00:40:10;;;;;;;2.70;0.50;;;-4.40;79.60;;;;;;2216577;64;20131;-36
2021/12/14 00:42:36;;;;;;;0.93;0.30;;;-4.30;80.30;;;;;;2216157;64;20492;-31
2021/12/14 00:45:04;;;;;;;1.17;0.23;;;-4.40;80.20;;;;;;2216195;64;20660;-31
2021/12/14 00:47:30;;;;;;;1.37;0.23;;;-4.40;80.60;;;;;;2218202;64;20539;-31
2021/12/14 00:49:57;;;;;;;0.73;0.30;;;-4.40;80.40;;;;;;2220029;64;20088;-32
2021/12/14 00:52:24;;;;;;;1.93;0.47;;;-4.40;81.10;;;;;;2220237;64;20101;-31
2021/12/14 00:54:50;;;;;;;0.77;0.43;;;-4.40;80.30;;;;;;2220393;64;20101;-31
2021/12/14 00:57:17;;;;;;;0.87;0.33;;;-4.40;79.50;;;;;;2220452;64;20084;-31
2021/12/14 00:59:43;;;;;;;1.60;0.50;;;-4.30;81.70;;;;;;2220411;64;20123;-32
2021/12/14 01:02:16;;;;;;;10.00;0.70;;;-4.30;80.20;;;;;;2220176;64;20483;-31
2021/12/14 01:04:49;;;;;;;0.50;0.30;;;-4.30;79.80;;;;;;2220419;64;20100;-31
2021/12/14 01:07:17;;;;;;;1.10;0.30;;;-4.30;79.80;;;;;;2220317;64;20169;-31
2021/12/14 01:09:45;;;;;;;2.73;0.40;;;-4.30;80.50;;;;;;2220213;64;20096;-31
2021/12/14 01:12:18;;;;;;;1.60;0.30;;;-4.20;80.50;;;;;;2220135;64;20076;-32
2021/12/14 01:15:22;;;;;;;5.03;0.50;;;-4.20;79.70;;;;;;2220084;64;20097;-31
2021/12/14 01:18:01;;;;;;;0.70;0.40;;;-4.20;80.10;;;;;;2219897;64;20156;-31
2021/12/14 01:20:35;;;;;;;0.97;0.30;;;-4.20;80.50;;;;;;2217364;64;20547;-30
2021/12/14 01:23:13;;;;;;;0.65;0.28;;;-4.10;80.30;;;;;;2220272;64;20168;-31
2021/12/14 01:25:39;;;;;;;5.37;0.40;;;-4.10;77.60;;;;;;2208076;64;20569;-32
2021/12/14 01:28:12;;;;;;;2.57;0.30;;;-4.20;78.50;;;;;;2208147;64;20101;-30
2021/12/14 01:31:05;;;;;;;0.87;0.43;;;-4.20;78.30;;;;;;2208362;64;20105;-31
2021/12/14 01:33:32;;;;;;;2.03;0.40;;;-4.20;77.90;;;;;;2208339;64;20093;-31
2021/12/14 01:36:00;;;;;;;7.17;0.40;;;-4.20;77.90;;;;;;2208308;64;20148;-31
2021/12/14 01:40:59;;;;;;;2.37;0.40;;;-4.20;77.90;;;;;;2208379;64;20090;-30
2021/12/14 01:43:29;;;;;;;0.90;0.30;;;-4.20;78.50;;;;;;2204886;64;20153;-31
2021/12/14 01:45:57;;;;;;;3.33;0.63;;;-4.20;78.30;;;;;;2208192;64;20145;-30
2021/12/14 01:48:23;;;;;;;3.53;0.60;;;-4.30;78.10;;;;;;2208212;64;20097;-30
2021/12/14 01:50:57;;;;;;;1.73;0.90;;;-4.20;77.60;;;;;;2208026;64;20596;-36
2021/12/14 01:53:24;;;;;;;4.33;0.47;;;-4.20;77.90;;;;;;2208198;64;20704;-31
2021/12/14 01:55:54;;;;;;;2.50;1.03;;;-4.30;77.80;;;;;;2208260;64;20104;-31
2021/12/14 01:58:22;;;;;;;2.33;0.40;;;-4.30;77.90;;;;;;2208257;64;20096;-31
2021/12/14 02:00:53;;;;;;;2.87;0.50;;;-4.30;78.00;;;;;;2208130;64;20604;-34
2021/12/14 02:03:19;;;;;;;1.50;0.40;;;-4.30;77.90;;;;;;2214331;64;20476;-37
2021/12/14 02:05:49;;;;;;;1.33;0.40;;;-4.30;76.70;;;;;;2219958;64;20594;-31
2021/12/14 02:08:23;;;;;;;2.63;0.83;;;-4.30;78.40;;;;;;2220072;64;20205;-31
2021/12/14 02:10:50;;;;;;;2.92;0.65;;;-4.30;78.60;;;;;;2211810;64;20106;-33
2021/12/14 02:13:43;;;;;;;6.50;0.83;;;-4.30;78.60;;;;;;2215017;64;20120;-31
2021/12/14 02:16:11;;;;;;;1.67;0.63;;;-4.30;78.40;;;;;;2211966;64;20085;-31
2021/12/14 02:18:41;;;;;;;1.73;0.40;;;-4.40;78.90;;;;;;2212010;64;20085;-36
2021/12/14 02:21:09;;;;;;;3.07;0.60;;;-4.40;79.20;;;;;;2212000;64;20580;-31
2021/12/14 02:23:38;;;;;;;3.17;0.50;;;-4.40;77.90;;;;;;2211951;64;20573;-32
2021/12/14 02:26:06;;;;;;;3.63;0.97;;;-4.40;78.30;;;;;;2211813;64;20160;-31
2021/12/14 02:28:33;;;;;;;3.90;0.60;;;-4.40;79.10;;;;;;2211692;64;20554;-31
2021/12/14 02:31:00;;;;;;;3.23;0.73;;;-4.40;78.40;;;;;;2211768;64;20085;-36
2021/12/14 02:33:29;;;;;;;2.93;1.00;;;-4.40;77.00;;;;;;2212078;64;20164;-32
2021/12/14 02:35:56;;;;;;;1.30;0.40;;;-4.40;79.20;;;;;;2212042;64;20231;-31
2021/12/14 02:38:22;;;;;;;7.83;0.57;;;-4.40;78.10;;;;;;2211958;64;20112;-33
2021/12/14 02:40:56;;;;;;;2.77;0.40;;;-4.40;77.80;;;;;;2212114;64;20097;-33
2021/12/14 02:43:28;;;;;;;2.27;0.40;;;-4.30;77.20;;;;;;2220079;64;20072;-34
2021/12/14 02:46:03;;;;;;;0.97;0.30;;;-4.30;77.20;;;;;;2219840;64;20103;-30
2021/12/14 02:48:29;;;;;;;4.93;0.57;;;-4.30;77.10;;;;;;2219856;64;20584;-32
2021/12/14 02:50:56;;;;;;;0.97;0.30;;;-4.30;77.90;;;;;;2219949;64;20103;-31
2021/12/14 02:53:23;;;;;;;3.13;0.50;;;-4.20;77.70;;;;;;2220018;64;20092;-35
2021/12/14 02:55:49;;;;;;;0.80;0.20;;;-4.20;77.50;;;;;;2223612;64;20217;-33
2021/12/14 02:58:16;;;;;;;5.27;0.80;;;-4.20;77.50;;;;;;2223723;64;20096;-31
2021/12/14 03:00:48;;;;;;;1.23;0.43;;;-4.20;77.90;;;;;;2220336;64;20104;-34
2021/12/14 03:03:15;;;;;;;11.13;1.00;;;-4.20;79.80;;;;;;2223533;64;20081;-32
2021/12/14 03:05:43;;;;;;;1.33;0.40;;;-4.30;80.00;;;;;;2220593;64;20099;-33
2021/12/14 03:08:22;;;;;;;8.57;1.13;;;-4.30;79.10;;;;;;2220711;64;20118;-33
2021/12/14 03:10:58;;;;;;;3.63;0.60;;;-4.30;78.70;;;;;;2220583;64;20176;-33
2021/12/14 03:13:29;;;;;;;1.50;0.60;;;-4.30;77.90;;;;;;2220681;64;20077;-34
2021/12/14 03:15:57;;;;;;;1.27;0.40;;;-4.30;75.80;;;;;;2220512;64;20557;-37
2021/12/14 03:18:34;;;;;;;3.60;0.40;;;-4.20;76.80;;;;;;2220653;64;20092;-32
2021/12/14 03:21:14;;;;;;;3.47;0.33;;;-4.20;76.90;;;;;;2208547;64;20175;-32
2021/12/14 03:23:46;;;;;;;3.53;0.47;;;-4.20;76.20;;;;;;2208505;64;20569;-33
2021/12/14 03:26:15;;;;;;;2.87;0.40;;;-4.20;74.50;;;;;;2205532;64;20081;-33
2021/12/14 03:28:45;;;;;;;4.13;0.40;;;-4.20;73.30;;;;;;2205376;64;20120;-31
2021/12/14 03:31:12;;;;;;;1.93;0.40;;;-4.20;74.20;;;;;;2208505;64;20573;-32
2021/12/14 03:34:09;;;;;;;10.10;1.10;;;-4.20;74.50;;;;;;2208530;64;20102;-32
2021/12/14 03:36:39;;;;;;;12.63;0.87;;;-4.20;74.30;;;;;;2208626;64;20167;-33
2021/12/14 03:39:15;;;;;;;2.40;0.93;;;-4.20;75.00;;;;;;2208547;64;20104;-32
2021/12/14 03:41:49;;;;;;;2.73;0.60;;;-4.20;73.40;;;;;;2208634;64;20512;-31
2021/12/14 03:44:20;;;;;;;3.50;0.30;;;-4.20;73.70;;;;;;2208505;64;20081;-32
2021/12/14 03:47:00;;;;;;;2.97;0.50;;;-4.20;74.10;;;;;;2208467;64;20089;-33
2021/12/14 03:49:33;;;;;;;0.77;0.30;;;-4.20;73.80;;;;;;2208327;64;20144;-33
2021/12/14 03:52:05;;;;;;;4.47;0.40;;;-4.20;72.20;;;;;;2208657;64;20094;-32
2021/12/14 03:54:32;;;;;;;4.30;0.40;;;-4.20;72.60;;;;;;2208562;64;20263;-32
2021/12/14 03:56:58;;;;;;;7.00;0.60;;;-4.30;72.10;;;;;;2208513;64;20085;-35
2021/12/14 03:59:27;;;;;;;5.47;0.50;;;-4.30;73.20;;;;;;2218380;64;20175;-33
2021/12/14 04:01:54;;;;;;;3.23;0.30;;;-4.40;73.00;;;;;;2220417;64;20096;-32
2021/12/14 04:04:29;;;;;;;2.47;0.50;;;-4.40;74.80;;;;;;2220545;64;20099;-34
2021/12/14 04:06:57;;;;;;;4.47;0.60;;;-4.40;75.50;;;;;;2220344;64;20108;-44
2021/12/14 04:09:26;;;;;;;2.93;0.47;;;-4.50;75.90;;;;;;2217125;64;20127;-37
2021/12/14 04:11:53;;;;;;;7.57;0.57;;;-4.50;76.80;;;;;;2220388;64;20192;-34
2021/12/14 04:14:20;;;;;;;1.03;0.30;;;-4.50;76.60;;;;;;2220454;64;20165;-32
2021/12/14 04:16:48;;;;;;;1.07;0.40;;;-4.50;76.80;;;;;;2220348;64;20607;-33
2021/12/14 04:19:20;;;;;;;3.10;0.37;;;-4.60;77.20;;;;;;2220287;64;20099;-32
2021/12/14 04:21:47;;;;;;;2.83;0.40;;;-4.50;76.10;;;;;;2220103;64;20480;-33
2021/12/14 04:24:17;;;;;;;2.60;0.60;;;-4.50;76.60;;;;;;2220464;64;20165;-32
2021/12/14 04:26:45;;;;;;;4.90;0.57;;;-4.60;77.00;;;;;;2220362;64;20088;-31
2021/12/14 04:29:12;;;;;;;2.07;0.30;;;-4.60;78.00;;;;;;2220166;64;20108;-34
2021/12/14 04:31:39;;;;;;;12.30;0.77;;;-4.50;73.70;;;;;;2220327;64;20116;-33
2021/12/14 04:34:06;;;;;;;4.20;0.30;;;-4.50;74.20;;;;;;2220426;64;20097;-49
2021/12/14 04:36:33;;;;;;;3.43;0.80;;;-4.50;74.60;;;;;;2220317;64;20097;-34
2021/12/14 04:39:29;;;;;;;0.70;0.30;;;-4.50;75.00;;;;;;2220237;64;20101;-36
2021/12/14 04:53:15;;;;;;;5.28;0.38;;;-4.40;73.60;;;;;;2220356;64;20104;-40
2021/12/14 04:55:44;;;;;;;4.53;0.97;;;-4.40;74.00;;;;;;2220128;64;20088;-33
2021/12/14 04:58:11;;;;;;;3.70;0.50;;;-4.40;75.10;;;;;;2211452;64;20077;-32
2021/12/14 05:00:40;;;;;;;3.87;0.77;;;-4.40;74.10;;;;;;2208366;64;20467;-35
2021/12/14 05:03:18;;;;;;;1.60;0.20;;;-4.40;73.10;;;;;;2208258;64;20577;-39
2021/12/14 05:05:49;;;;;;;2.53;0.30;;;-4.40;72.40;;;;;;2208187;64;20597;-40
2021/12/14 05:11:03;;;;;;;0.93;0.17;;;-4.40;72.90;;;;;;2208633;64;20073;-33
2021/12/14 05:13:37;;;;;;;1.80;0.30;;;-4.30;71.70;;;;;;2211234;64;20090;-32
2021/12/14 05:16:05;;;;;;;5.57;0.60;;;-4.30;72.10;;;;;;2208376;64;20152;-31
2021/12/14 05:18:31;;;;;;;3.20;0.30;;;-4.30;72.50;;;;;;2208021;64;20089;-33
2021/12/14 05:20:59;;;;;;;4.30;0.30;;;-4.20;71.40;;;;;;2208035;64;20137;-33
2021/12/14 05:23:31;;;;;;;5.33;0.30;;;-4.20;72.30;;;;;;2207932;64;20078;-35
2021/12/14 05:25:58;;;;;;;1.13;0.20;;;-4.20;71.70;;;;;;2205169;64;20496;-32
2021/12/14 05:28:25;;;;;;;7.33;0.83;;;-4.10;69.70;;;;;;2212700;64;20096;-32
2021/12/14 05:30:54;;;;;;;13.07;0.70;;;-4.00;69.30;;;;;;2220361;64;20163;-33
2021/12/14 05:33:23;;;;;;;1.90;0.40;;;-4.00;69.20;;;;;;2220016;64;20081;-32
2021/12/14 05:35:51;;;;;;;1.00;0.67;;;-4.00;68.90;;;;;;2220192;64;20080;-33
2021/12/14 05:38:22;;;;;;;2.13;0.30;;;-3.90;69.30;;;;;;2220189;64;20116;-32
2021/12/14 05:43:24;;;;;;;3.07;0.20;;;-3.90;67.80;;;;;;2220117;64;20510;-33
2021/12/14 05:45:53;;;;;;;8.73;0.67;;;-3.80;68.30;;;;;;2220093;64;20104;-33
2021/12/14 05:48:30;;;;;;;4.70;0.50;;;-3.80;66.90;;;;;;2222823;64;20181;-33
2021/12/14 05:50:59;;;;;;;2.63;0.20;;;-3.80;67.20;;;;;;2220067;64;20511;-33
2021/12/14 05:53:32;;;;;;;12.23;0.67;;;-3.70;67.60;;;;;;2220175;64;20088;-33
2021/12/14 05:56:01;;;;;;;3.57;0.77;;;-3.70;67.80;;;;;;2220069;64;20088;-34
2021/12/14 05:58:28;;;;;;;5.37;0.97;;;-3.60;67.90;;;;;;2219966;64;20148;-32
2021/12/14 06:01:08;;;;;;;1.30;0.40;;;-3.50;67.40;;;;;;2219821;64;20168;-34
2021/12/14 06:03:39;;;;;;;2.90;0.77;;;-3.50;67.60;;;;;;2219889;64;20442;-34
2021/12/14 06:06:13;;;;;;;7.13;0.57;;;-3.50;66.80;;;;;;2219964;64;20100;-35
2021/12/14 06:08:40;;;;;;;2.63;0.40;;;-3.40;66.40;;;;;;2220072;64;20093;-32
2021/12/14 06:11:06;;;;;;;9.27;0.40;;;-3.30;66.90;;;;;;2219982;64;20110;-34
2021/12/14 06:13:39;;;;;;;16.27;3.60;;;-3.20;67.20;;;;;;2219866;64;20161;-37
2021/12/14 06:16:06;;;;;;;0.70;0.30;;;-3.10;65.70;;;;;;2218750;64;20147;-33
2021/12/14 06:18:32;;;;;;;2.80;0.50;;;-3.00;64.80;;;;;;2215555;64;20243;-33
2021/12/14 06:20:59;;;;;;;0.70;0.20;;;-3.00;63.50;;;;;;2207054;64;20109;-34
2021/12/14 06:23:26;;;;;;;7.77;0.83;;;-2.90;64.30;;;;;;2203888;64;20164;-36
2021/12/14 06:25:53;;;;;;;0.23;0.10;;;-2.90;63.10;;;;;;2204015;64;20101;-32
2021/12/14 06:28:26;;;;;;;2.53;0.90;;;-2.90;64.10;;;;;;2200124;65;20502;-33
2021/12/14 06:30:53;;;;;;;13.30;3.20;;;-3.00;63.90;;;;;;2200071;65;20775;-36
2021/12/14 06:33:19;;;;;;;2.50;0.30;;;-2.80;63.50;;;;;;2200141;65;20082;-32
2021/12/14 06:35:49;;;;;;;9.17;0.73;;;-2.80;64.00;;;;;;2200343;65;20104;-33
2021/12/14 06:38:26;;;;;;;1.23;0.20;;;-2.60;63.10;;;;;;2200220;65;20150;-34
2021/12/14 06:41:10;;;;;;;0.77;0.20;;;-2.40;61.90;;;;;;2192478;65;20083;-32
2021/12/14 06:43:54;;;;;;;1.30;0.30;;;-2.40;61.40;;;;;;2184840;65;20655;-33
2021/12/14 06:46:29;;;;;;;2.00;0.47;;;-2.30;61.90;;;;;;2185558;65;20174;-34
2021/12/14 06:49:09;;;;;;;1.17;0.52;;;-2.40;62.70;;;;;;2191791;65;20587;-32
2021/12/14 06:51:39;;;;;;;5.13;0.30;;;-2.30;63.30;;;;;;2184241;65;20534;-32
2021/12/14 06:54:14;;;;;;;2.10;0.40;;;-2.10;61.30;;;;;;2181330;65;20096;-32
2021/12/14 06:56:40;;;;;;;9.20;0.90;;;-2.00;61.50;;;;;;2184667;65;20089;-39
2021/12/14 06:59:10;;;;;;;4.43;0.43;;;-2.00;60.20;;;;;;2187028;65;20092;-32
2021/12/14 07:01:39;;;;;;;9.27;1.03;;;-2.00;60.50;;;;;;2188744;65;20095;-32
2021/12/14 07:04:07;;;;;;;1.83;0.53;;;-2.00;62.40;;;;;;2188844;65;20480;-33
2021/12/14 07:06:39;;;;;;;4.70;0.90;;;-1.80;61.00;;;;;;2188782;65;20503;-34
2021/12/14 07:09:10;;;;;;;0.50;0.30;;;-1.50;59.90;;;;;;2188859;65;20178;-34
2021/12/14 07:11:37;;;;;;;0.60;0.30;;;-1.60;59.30;;;;;;2191477;65;20176;-34
2021/12/14 07:14:12;;;;;;;3.43;0.40;;;-1.40;58.50;;;;;;2198975;64;20169;-38
2021/12/14 07:16:43;;;;;;;1.63;0.40;;;-1.20;58.00;;;;;;2211152;64;20174;-32
2021/12/14 07:19:10;;;;;;;8.57;0.40;;;-1.10;56.80;;;;;;2207975;64;20093;-33
2021/12/14 07:21:45;;;;;;;2.83;0.33;;;-1.20;58.10;;;;;;2208329;64;20089;-33
2021/12/14 07:24:21;;;;;;;0.20;0.20;;;-1.10;56.50;;;;;;2219993;64;20144;-33
2021/12/14 07:27:11;;;;;;;4.67;0.40;;;-0.90;55.70;;;;;;2219781;64;20165;-38
2021/12/14 07:29:37;;;;;;;0.63;0.23;;;-1.00;56.60;;;;;;2219630;64;20104;-33
2021/12/14 07:32:04;;;;;;;1.60;0.20;;;-0.80;55.80;;;;;;2214709;64;20119;-32
2021/12/14 07:34:31;;;;;;;0.33;0.20;;;-1.10;55.30;;;;;;2214708;64;20156;-34
2021/12/14 07:36:57;;;;;;;5.40;0.27;;;-1.00;55.90;;;;;;2214711;64;20093;-35
2021/12/14 07:39:26;;;;;;;6.07;0.50;;;-1.20;56.20;;;;;;2214792;64;20529;-34
2021/12/14 07:41:55;;;;;;;3.17;0.23;;;-1.00;55.80;;;;;;2215042;64;20101;-32
2021/12/14 07:44:23;;;;;;;15.13;0.77;;;-1.30;55.90;;;;;;2215493;64;20158;-35
2021/12/14 07:46:54;;;;;;;12.00;0.50;;;-1.30;57.20;;;;;;2208322;64;20101;-33
2021/12/14 07:49:41;;;;;;;5.93;0.70;;;-1.70;57.60;;;;;;2208433;64;20255;-36
2021/12/14 07:52:16;;;;;;;5.03;0.40;;;-1.50;57.00;;;;;;2208346;64;20520;-37
2021/12/14 07:54:46;;;;;;;;;;;-1.60;58.30;;;;;;2208648;64;20175;-35
2021/12/14 07:57:23;;;;;;;31.07;1.60;;;-1.30;57.20;;;;;;2207555;64;19984;-34
2021/12/14 07:59:52;;;;;;;5.33;0.83;;;-1.50;58.40;;;;;;2204384;64;20090;-33
2021/12/14 08:02:21;;;;;;;10.03;1.07;;;-1.50;58.20;;;;;;2208805;64;20093;-33
2021/12/14 08:04:57;;;;;;;11.93;0.77;;;-1.40;56.90;;;;;;2215481;64;20111;-54
2021/12/14 08:07:38;;;;;;;3.73;0.20;;;-1.40;57.40;;;;;;2211902;64;20179;-33
2021/12/14 08:10:16;;;;;;;3.13;0.50;;;-1.20;57.00;;;;;;2211934;64;20112;-34
2021/12/14 08:12:52;;;;;;;13.93;1.83;;;-1.40;57.20;;;;;;2208943;64;20611;-34
2021/12/14 08:15:39;;;;;;;1.47;0.23;;;-1.50;58.60;;;;;;2208999;64;20097;-51
2021/12/14 08:18:16;;;;;;;1.30;0.27;;;-1.50;57.80;;;;;;2212184;64;20097;-33
2021/12/14 08:20:57;;;;;;;7.23;0.47;;;-1.60;57.80;;;;;;2215367;64;20089;-42
2021/12/14 08:23:29;;;;;;;4.43;1.43;;;-1.60;58.40;;;;;;2212181;64;20559;-34
2021/12/14 08:26:17;;;;;;;6.63;0.40;;;-1.70;58.90;;;;;;2212202;64;20089;-39
2021/12/14 08:28:54;;;;;;;10.30;0.87;;;-2.20;61.00;;;;;;2211957;64;20093;-34
2021/12/14 08:31:22;;;;;;;8.73;0.50;;;-1.80;58.90;;;;;;2212221;64;20171;-40
2021/12/14 08:34:22;;;;;;;4.00;0.70;;;-2.20;60.60;;;;;;2212241;64;20464;-35
2021/12/14 08:37:13;;;;;;;4.17;0.50;;;-2.10;60.50;;;;;;2216227;64;20155;-35
2021/12/14 08:39:50;;;;;;;1.40;0.40;;;-1.80;59.70;;;;;;2214287;64;20186;-34
2021/12/14 08:42:36;;;;;;;2.60;0.20;;;-1.70;59.80;;;;;;2216400;64;20073;-36
2021/12/14 08:45:24;;;;;;;4.30;0.30;;;-2.00;58.10;;;;;;2219356;64;20565;-36
2021/12/14 08:47:53;;;;;;;4.00;0.67;;;-2.00;59.70;;;;;;2213474;64;20138;-45
2021/12/14 08:50:20;;;;;;;3.23;0.57;;;-2.00;59.00;;;;;;2215803;64;20101;-34
2021/12/14 08:52:46;;;;;;;2.63;0.50;;;-2.00;59.50;;;;;;2216016;64;20084;-37
2021/12/14 08:55:14;;;;;;;6.47;1.17;;;-2.10;61.10;;;;;;2215923;64;20717;-35
2021/12/14 08:57:41;;;;;;;2.23;0.30;;;-2.10;61.50;;;;;;2215945;64;20077;-33
2021/12/14 09:00:15;;;;;;;2.10;0.30;;;-2.20;61.70;;;;;;2212621;64;20080;-36
2021/12/14 09:02:42;;;;;;;0.90;0.40;;;-2.30;61.60;;;;;;2216055;64;20131;-34
2021/12/14 09:05:17;;;;;;;4.00;0.33;;;-2.00;60.60;;;;;;2212660;64;20552;-36
2021/12/14 09:07:45;;;;;;;3.23;0.50;;;-1.90;60.10;;;;;;2216043;64;20182;-35
2021/12/14 09:10:14;;;;;;;0.70;0.20;;;-2.00;62.40;;;;;;2215797;64;20089;-33
2021/12/14 09:12:42;;;;;;;4.17;0.43;;;-2.10;62.30;;;;;;2212536;64;20537;-33
2021/12/14 09:15:27;;;;;;;2.10;0.30;;;-2.10;62.20;;;;;;2215857;64;20472;-36
2021/12/14 09:17:54;;;;;;;6.85;0.30;;;-2.10;62.80;;;;;;2212689;64;20146;-35
2021/12/14 09:20:23;;;;;;;2.77;0.40;;;-2.10;63.10;;;;;;2212628;64;20102;-37
2021/12/14 09:22:53;;;;;;;2.10;0.40;;;-2.00;61.10;;;;;;2215952;64;20083;-34
2021/12/14 09:25:21;;;;;;;3.57;0.30;;;-1.90;62.20;;;;;;2217581;64;20143;-33
2021/12/14 09:27:47;;;;;;;9.03;0.43;;;-1.80;62.20;;;;;;2223264;64;20627;-36
2021/12/14 09:30:15;;;;;;;4.53;0.33;;;-1.70;62.20;;;;;;2223269;64;20192;-35
2021/12/14 09:32:42;;;;;;;7.90;0.50;;;-1.70;61.00;;;;;;2220119;64;20088;-34
2021/12/14 09:35:14;;;;;;;3.13;0.40;;;-1.60;60.30;;;;;;2216696;64;20084;-34
2021/12/14 09:37:41;;;;;;;5.10;0.30;;;-1.60;59.80;;;;;;2223098;64;20479;-37
2021/12/14 09:40:15;;;;;;;2.57;0.40;;;-1.70;60.10;;;;;;2223325;64;20080;-33
2021/12/14 09:42:41;;;;;;;9.90;0.60;;;-2.00;61.70;;;;;;2223255;64;20092;-37
2021/12/14 09:45:17;;;;;;;13.33;0.77;;;-1.90;61.30;;;;;;2223075;64;20103;-35
2021/12/14 09:47:45;;;;;;;3.40;0.23;;;-1.90;60.90;;;;;;2221481;64;20088;-34
2021/12/14 09:50:18;;;;;;;4.67;0.57;;;-1.70;61.70;;;;;;2218937;64;20110;-34
2021/12/14 09:52:47;;;;;;;9.40;1.23;;;-1.70;61.80;;;;;;2220016;64;20080;-34
2021/12/14 09:55:20;;;;;;;10.40;0.70;;;-1.60;61.90;;;;;;2220023;64;20098;-33
2021/12/14 09:57:50;;;;;;;11.80;0.97;;;-1.70;62.60;;;;;;2220130;64;20100;-33
2021/12/14 10:00:25;;;;;;;2.13;0.30;;;-1.60;61.70;;;;;;2220079;64;20107;-34
2021/12/14 10:02:52;;;;;;;1.25;0.30;;;-1.50;60.40;;;;;;2220030;64;20515;-33
2021/12/14 10:05:26;;;;;;;1.67;0.30;;;-1.50;61.10;;;;;;2219700;64;20465;-38
2021/12/14 10:07:55;;;;;;;2.27;0.30;;;-1.50;60.80;;;;;;2220152;64;20088;-33
2021/12/14 10:10:24;;;;;;;5.20;0.30;;;-1.60;61.30;;;;;;2223251;64;20157;-33
2021/12/14 10:12:53;;;;;;;4.40;0.50;;;-1.30;62.00;;;;;;2219880;64;20084;-33
2021/12/14 10:15:31;;;;;;;2.53;0.27;;;-1.50;61.00;;;;;;2219914;64;20103;-35
2021/12/14 10:18:04;;;;;;;5.23;0.50;;;-1.40;61.90;;;;;;2219886;64;20478;-33
2021/12/14 10:20:42;;;;;;;5.17;0.40;;;-1.50;62.80;;;;;;2219653;64;20119;-38
2021/12/14 10:23:09;;;;;;;2.97;0.40;;;-1.50;62.60;;;;;;2219760;64;20544;-34
2021/12/14 10:25:35;;;;;;;3.57;0.37;;;-1.50;62.30;;;;;;2219817;64;20080;-32
2021/12/14 10:28:02;;;;;;;6.37;0.40;;;-1.60;62.10;;;;;;2219865;64;20072;-34
2021/12/14 10:30:39;;;;;;;1.10;0.27;;;-1.60;62.00;;;;;;2216482;64;20093;-36
2021/12/14 10:33:06;;;;;;;2.07;0.20;;;-1.50;61.50;;;;;;2219899;64;20104;-32
2021/12/14 10:35:40;;;;;;;3.83;0.40;;;-1.50;61.40;;;;;;2220017;64;20553;-35
2021/12/14 10:39:03;;;;;;;3.67;0.70;;;-1.50;60.10;;;;;;2219993;64;20690;-32
2021/12/14 10:43:57;;;;;;;9.98;0.60;;;-1.50;60.50;;;;;;2219490;64;20104;-45
2021/12/14 10:46:27;;;;;;;14.03;0.80;;;-1.60;62.00;;;;;;2222944;64;20112;-34
2021/12/14 10:48:54;;;;;;;4.97;0.53;;;-1.70;63.20;;;;;;2223083;64;20495;-33
2021/12/14 10:51:23;;;;;;;2.13;0.40;;;-1.70;62.40;;;;;;2216490;64;20135;-34
2021/12/14 10:53:53;;;;;;;6.93;0.90;;;-1.70;62.40;;;;;;2223153;64;20089;-35
2021/12/14 10:56:29;;;;;;;1.77;0.90;;;-1.60;62.20;;;;;;2216748;64;20160;-34
2021/12/14 10:58:59;;;;;;;9.03;0.47;;;-1.50;61.50;;;;;;2223114;64;20104;-33
2021/12/14 11:01:34;;;;;;;4.47;0.30;;;-1.60;61.70;;;;;;2219951;64;20545;-45
2021/12/14 11:04:11;;;;;;;8.60;0.40;;;-1.60;61.30;;;;;;2216816;64;20564;-34
2021/12/14 11:06:42;;;;;;;14.90;0.63;;;-1.70;62.40;;;;;;2223125;64;20460;-32
2021/12/14 11:09:40;;;;;;;6.37;0.70;;;-1.70;62.60;;;;;;2223057;64;20515;-39
2021/12/14 11:12:08;;;;;;;4.87;0.40;;;-1.70;61.90;;;;;;2223030;64;20089;-34
2021/12/14 11:14:37;;;;;;;2.17;0.73;;;-1.70;62.40;;;;;;2219647;64;20100;-35
2021/12/14 11:19:58;;;;;;;0.40;0.10;;;-1.70;62.90;;;;;;2220545;64;20658;-32
2021/12/14 11:22:28;;;;;;;2.60;0.30;;;-1.90;62.90;;;;;;2223940;64;20148;-32
2021/12/14 11:24:56;;;;;;;2.53;0.40;;;-1.90;63.10;;;;;;2220334;64;20119;-33
2021/12/14 11:27:29;;;;;;;6.97;0.30;;;-1.90;64.20;;;;;;2220662;64;20104;-35
2021/12/14 11:30:15;;;;;;;3.23;0.90;;;-1.90;64.30;;;;;;2220215;64;20619;-40
2021/12/14 11:32:43;;;;;;;11.47;0.50;;;-2.00;64.80;;;;;;2220419;64;20072;-34
2021/12/14 11:35:21;;;;;;;2.23;0.60;;;-2.10;65.30;;;;;;2220237;64;20178;-35
2021/12/14 11:37:53;;;;;;;4.87;0.30;;;-2.10;64.80;;;;;;2223670;64;20099;-34
2021/12/14 11:40:23;;;;;;;1.73;0.63;;;-2.10;66.20;;;;;;2223626;64;20092;-38
2021/12/14 11:42:53;;;;;;;3.87;0.83;;;-2.30;66.20;;;;;;2223521;64;20088;-34
2021/12/14 11:45:21;;;;;;;7.90;0.60;;;-2.30;66.70;;;;;;2223490;64;20565;-35
2021/12/14 11:47:53;;;;;;;2.60;0.40;;;-2.30;66.50;;;;;;2213313;64;20101;-37
2021/12/14 11:50:33;;;;;;;0.97;0.30;;;-2.20;66.40;;;;;;2211994;64;20077;-37
2021/12/14 11:53:06;;;;;;;6.50;0.80;;;-2.30;66.90;;;;;;2212242;64;20077;-35
2021/12/14 11:56:04;;;;;;;2.63;0.30;;;-2.50;68.10;;;;;;2215360;64;20604;-33
2021/12/14 11:58:35;;;;;;;10.60;0.40;;;-2.50;69.20;;;;;;2215296;64;20152;-35
2021/12/14 12:01:24;;;;;;;2.00;0.33;;;-2.60;68.80;;;;;;2212151;64;20089;-39
2021/12/14 12:04:03;;;;;;;6.63;0.40;;;-2.70;69.20;;;;;;2215058;64;20089;-34
2021/12/14 12:09:28;;;;;;;1.47;0.40;;;-2.80;71.70;;;;;;2212587;64;20091;-40
2021/12/14 12:12:01;;;;;;;2.33;0.27;;;-2.80;71.20;;;;;;2212023;64;20093;-33
2021/12/14 12:14:51;;;;;;;1.43;0.30;;;-2.90;72.80;;;;;;2215135;64;20559;-35
2021/12/14 12:17:30;;;;;;;7.30;0.37;;;-2.90;73.20;;;;;;2211973;64;20089;-35
2021/12/14 12:20:05;;;;;;;5.40;0.43;;;-3.00;73.50;;;;;;2219621;64;20606;-33
2021/12/14 12:22:44;;;;;;;1.63;0.50;;;-3.10;73.50;;;;;;2220285;64;20212;-36
2021/12/14 12:25:16;;;;;;;3.97;0.40;;;-3.10;74.00;;;;;;2220064;64;20084;-36
2021/12/14 12:27:49;;;;;;;2.97;0.70;;;-3.10;75.20;;;;;;2219984;64;20140;-35
2021/12/14 12:30:31;;;;;;;10.67;0.73;;;-3.10;75.90;;;;;;2220099;64;20172;-34
2021/12/14 12:33:03;;;;;;;6.10;0.50;;;-3.10;76.10;;;;;;2220216;64;20115;-33
2021/12/14 12:35:36;;;;;;;2.07;0.50;;;-3.20;76.10;;;;;;2220225;64;20104;-36
2021/12/14 12:38:20;;;;;;;2.30;1.43;;;-3.10;75.90;;;;;;2220051;64;20173;-34
2021/12/14 12:40:50;;;;;;;6.93;0.47;;;-3.20;76.70;;;;;;2220144;64;20096;-34
2021/12/14 12:43:29;;;;;;;1.03;0.60;;;-3.20;77.80;;;;;;2220087;64;20092;-33
2021/12/14 12:46:11;;;;;;;9.13;1.43;;;-3.20;77.60;;;;;;2220002;64;20114;-33
2021/12/14 12:48:54;;;;;;;6.33;0.50;;;-3.20;77.90;;;;;;2216272;64;20119;-36
2021/12/14 12:51:42;;;;;;;3.80;0.30;;;-3.20;78.30;;;;;;2216417;64;20101;-43
2021/12/14 12:54:32;;;;;;;2.53;0.30;;;-3.20;78.90;;;;;;2215884;64;20141;-38
2021/12/14 12:57:23;;;;;;;14.80;0.80;;;-3.30;78.40;;;;;;2216239;64;20092;-33
2021/12/14 12:59:59;;;;;;;3.53;0.40;;;-3.30;79.20;;;;;;2216108;64;20096;-34
2021/12/14 13:02:30;;;;;;;5.07;0.90;;;-3.30;79.20;;;;;;2216116;64;20093;-36
2021/12/14 13:05:06;;;;;;;6.30;0.50;;;-3.30;80.20;;;;;;2216195;64;20091;-37
2021/12/14 13:07:42;;;;;;;1.83;0.40;;;-3.30;80.00;;;;;;2216404;64;20115;-38
2021/12/14 13:10:23;;;;;;;2.57;0.30;;;-3.30;80.60;;;;;;2216122;64;20104;-33
2021/12/14 13:12:50;;;;;;;9.17;2.73;;;-3.30;81.10;;;;;;2216299;64;20174;-33
2021/12/14 13:15:33;;;;;;;1.80;0.33;;;-3.30;81.10;;;;;;2216254;64;20093;-33
2021/12/14 13:18:31;;;;;;;6.50;0.77;;;-3.30;81.90;;;;;;2215992;64;20508;-35
2021/12/14 13:21:18;;;;;;;0.75;0.20;;;-3.30;82.20;;;;;;2213100;64;20103;-35
2021/12/14 13:23:50;;;;;;;4.83;0.57;;;-3.30;82.30;;;;;;2216167;64;20100;-37
2021/12/14 13:26:47;;;;;;;2.83;1.17;;;-3.30;82.80;;;;;;2216218;64;20168;-33
2021/12/14 13:29:15;;;;;;;11.63;0.73;;;-3.30;83.60;;;;;;2215884;64;20527;-34
2021/12/14 13:31:51;;;;;;;7.07;0.40;;;-3.30;83.70;;;;;;2215976;64;20085;-33
2021/12/14 13:34:21;;;;;;;0.90;0.40;;;-3.30;83.90;;;;;;2216148;64;20101;-34
2021/12/14 13:36:49;;;;;;;2.23;0.47;;;-3.30;84.20;;;;;;2211768;64;20561;-34
2021/12/14 13:39:15;;;;;;;5.53;0.70;;;-3.30;84.90;;;;;;2211655;64;20279;-35
2021/12/14 13:42:12;;;;;;;2.37;0.70;;;-3.40;84.80;;;;;;2211871;64;20136;-35